sensor_id;sensor_type;location;lat;lon;timestamp;P1;durP1;ratioP1;P2;durP2;ratioP2
44750;SDS011;30477;48.224;11.470;2022-08-01T00:01:41;3.43;;;2.90;;
44750;SDS011;30477;48.224;11.470;2022-08-01T00:04:07;3.67;;;3.20;;
44750;SDS011;30477;48.224;11.470;2022-08-01T00:06:32;4.53;;;3.20;;
44750;SDS011;30477;48.224;11.470;2022-08-01T00:08:57;4.53;;;3.73;;
44750;SDS011;30477;48.224;11.470;2022-08-01T00:11:23;4.07;;;3.10;;
44750;SDS011;30477;48.224;11.470;2022-08-01T00:13:48;6.87;;;3.67;;
44750;SDS011;30477;48.224;11.470;2022-08-01T00:16:14;5.17;;;3.27;;
44750;SDS011;30477;48.224;11.470;2022-08-01T00:18:40;6.97;;;3.20;;
44750;SDS011;30477;48.224;11.470;2022-08-01T00:21:06;3.47;;;3.10;;
44750;SDS011;30477;48.224;11.470;2022-08-01T00:23:32;4.30;;;3.23;;
44750;SDS011;30477;48.224;11.470;2022-08-01T00:25:58;4.13;;;3.08;;
44750;SDS011;30477;48.224;11.470;2022-08-01T00:28:23;7.10;;;3.53;;
44750;SDS011;30477;48.224;11.470;2022-08-01T00:30:48;3.53;;;3.20;;
44750;SDS011;30477;48.224;11.470;2022-08-01T00:33:14;4.87;;;3.67;;
44750;SDS011;30477;48.224;11.470;2022-08-01T00:35:39;3.70;;;3.07;;
44750;SDS011;30477;48.224;11.470;2022-08-01T00:38:04;3.80;;;3.20;;
44750;SDS011;30477;48.224;11.470;2022-08-01T00:40:30;4.17;;;3.23;;
44750;SDS011;30477;48.224;11.470;2022-08-01T00:42:55;5.53;;;3.30;;
44750;SDS011;30477;48.224;11.470;2022-08-01T00:45:20;3.47;;;3.17;;
44750;SDS011;30477;48.224;11.470;2022-08-01T00:47:46;4.67;;;3.10;;
44750;SDS011;30477;48.224;11.470;2022-08-01T00:50:12;3.70;;;3.20;;
44750;SDS011;30477;48.224;11.470;2022-08-01T00:52:38;4.45;;;3.13;;
44750;SDS011;30477;48.224;11.470;2022-08-01T00:55:04;4.35;;;3.20;;
44750;SDS011;30477;48.224;11.470;2022-08-01T00:57:29;3.93;;;3.23;;
44750;SDS011;30477;48.224;11.470;2022-08-01T00:59:55;5.00;;;3.17;;
44750;SDS011;30477;48.224;11.470;2022-08-01T01:02:21;5.82;;;3.15;;
44750;SDS011;30477;48.224;11.470;2022-08-01T01:04:46;4.53;;;2.87;;
44750;SDS011;30477;48.224;11.470;2022-08-01T01:07:27;4.90;;;2.87;;
44750;SDS011;30477;48.224;11.470;2022-08-01T01:09:58;3.37;;;3.00;;
44750;SDS011;30477;48.224;11.470;2022-08-01T01:12:31;4.72;;;3.38;;
44750;SDS011;30477;48.224;11.470;2022-08-01T01:15:09;3.92;;;3.13;;
44750;SDS011;30477;48.224;11.470;2022-08-01T01:17:45;5.65;;;3.10;;
44750;SDS011;30477;48.224;11.470;2022-08-01T01:20:16;3.28;;;3.00;;
44750;SDS011;30477;48.224;11.470;2022-08-01T01:28:40;5.97;;;3.00;;
44750;SDS011;30477;48.224;11.470;2022-08-01T01:30:52;4.45;;;3.00;;
44750;SDS011;30477;48.224;11.470;2022-08-01T01:33:20;5.90;;;3.55;;
44750;SDS011;30477;48.224;11.470;2022-08-01T01:35:49;3.22;;;2.97;;
44750;SDS011;30477;48.224;11.470;2022-08-01T01:38:18;3.60;;;3.30;;
44750;SDS011;30477;48.224;11.470;2022-08-01T01:40:48;4.30;;;3.28;;
44750;SDS011;30477;48.224;11.470;2022-08-01T01:43:15;4.40;;;3.22;;
44750;SDS011;30477;48.224;11.470;2022-08-01T01:45:43;3.55;;;3.00;;
44750;SDS011;30477;48.224;11.470;2022-08-01T01:48:12;5.28;;;3.35;;
44750;SDS011;30477;48.224;11.470;2022-08-01T01:50:40;4.40;;;3.50;;
44750;SDS011;30477;48.224;11.470;2022-08-01T01:53:07;6.05;;;3.28;;
44750;SDS011;30477;48.224;11.470;2022-08-01T01:55:35;4.45;;;3.30;;
44750;SDS011;30477;48.224;11.470;2022-08-01T01:58:03;4.00;;;3.60;;
44750;SDS011;30477;48.224;11.470;2022-08-01T02:00:31;3.47;;;3.17;;
44750;SDS011;30477;48.224;11.470;2022-08-01T02:02:58;3.65;;;2.97;;
44750;SDS011;30477;48.224;11.470;2022-08-01T02:05:26;3.40;;;3.10;;
44750;SDS011;30477;48.224;11.470;2022-08-01T02:07:53;3.25;;;2.95;;
44750;SDS011;30477;48.224;11.470;2022-08-01T02:10:20;4.57;;;3.00;;
44750;SDS011;30477;48.224;11.470;2022-08-01T02:12:47;4.93;;;3.40;;
44750;SDS011;30477;48.224;11.470;2022-08-01T02:15:14;3.40;;;3.00;;
44750;SDS011;30477;48.224;11.470;2022-08-01T02:17:44;4.25;;;3.40;;
44750;SDS011;30477;48.224;11.470;2022-08-01T02:20:12;3.67;;;3.08;;
44750;SDS011;30477;48.224;11.470;2022-08-01T02:22:47;3.33;;;3.03;;
44750;SDS011;30477;48.224;11.470;2022-08-01T02:25:20;5.32;;;3.25;;
44750;SDS011;30477;48.224;11.470;2022-08-01T02:30:26;3.92;;;3.30;;
44750;SDS011;30477;48.224;11.470;2022-08-01T02:33:08;5.55;;;3.33;;
44750;SDS011;30477;48.224;11.470;2022-08-01T02:35:47;5.03;;;3.15;;
44750;SDS011;30477;48.224;11.470;2022-08-01T02:38:15;4.03;;;3.10;;
44750;SDS011;30477;48.224;11.470;2022-08-01T02:40:45;3.45;;;3.03;;
44750;SDS011;30477;48.224;11.470;2022-08-01T02:43:12;4.32;;;3.10;;
44750;SDS011;30477;48.224;11.470;2022-08-01T02:45:43;4.22;;;3.20;;
44750;SDS011;30477;48.224;11.470;2022-08-01T02:48:13;3.38;;;3.05;;
44750;SDS011;30477;48.224;11.470;2022-08-01T02:50:42;4.45;;;3.30;;
44750;SDS011;30477;48.224;11.470;2022-08-01T02:53:11;3.58;;;3.28;;
44750;SDS011;30477;48.224;11.470;2022-08-01T02:55:38;5.93;;;3.28;;
44750;SDS011;30477;48.224;11.470;2022-08-01T02:58:06;5.55;;;3.33;;
44750;SDS011;30477;48.224;11.470;2022-08-01T03:00:32;5.13;;;3.20;;
44750;SDS011;30477;48.224;11.470;2022-08-01T03:02:59;4.20;;;3.05;;
44750;SDS011;30477;48.224;11.470;2022-08-01T03:05:26;4.82;;;3.35;;
44750;SDS011;30477;48.224;11.470;2022-08-01T03:07:52;3.40;;;3.10;;
44750;SDS011;30477;48.224;11.470;2022-08-01T03:10:20;3.00;;;2.80;;
44750;SDS011;30477;48.224;11.470;2022-08-01T03:12:46;3.55;;;3.25;;
44750;SDS011;30477;48.224;11.470;2022-08-01T03:15:14;4.70;;;3.13;;
44750;SDS011;30477;48.224;11.470;2022-08-01T03:17:43;4.53;;;3.15;;
44750;SDS011;30477;48.224;11.470;2022-08-01T03:20:12;4.97;;;3.53;;
44750;SDS011;30477;48.224;11.470;2022-08-01T03:22:40;6.07;;;3.28;;
44750;SDS011;30477;48.224;11.470;2022-08-01T03:25:08;5.40;;;3.22;;
44750;SDS011;30477;48.224;11.470;2022-08-01T03:27:36;4.32;;;3.38;;
44750;SDS011;30477;48.224;11.470;2022-08-01T03:30:03;3.63;;;3.00;;
44750;SDS011;30477;48.224;11.470;2022-08-01T03:32:30;5.07;;;3.33;;
44750;SDS011;30477;48.224;11.470;2022-08-01T03:34:56;3.72;;;3.15;;
44750;SDS011;30477;48.224;11.470;2022-08-01T03:39:54;4.70;;;3.25;;
44750;SDS011;30477;48.224;11.470;2022-08-01T03:42:24;7.13;;;3.60;;
44750;SDS011;30477;48.224;11.470;2022-08-01T03:44:58;3.65;;;3.10;;
44750;SDS011;30477;48.224;11.470;2022-08-01T03:47:31;4.55;;;3.08;;
44750;SDS011;30477;48.224;11.470;2022-08-01T03:49:59;4.50;;;3.30;;
44750;SDS011;30477;48.224;11.470;2022-08-01T03:52:27;4.38;;;3.40;;
44750;SDS011;30477;48.224;11.470;2022-08-01T03:54:55;3.50;;;3.20;;
44750;SDS011;30477;48.224;11.470;2022-08-01T03:57:23;5.35;;;3.17;;
44750;SDS011;30477;48.224;11.470;2022-08-01T03:59:50;3.88;;;3.22;;
44750;SDS011;30477;48.224;11.470;2022-08-01T04:02:25;5.00;;;3.30;;
44750;SDS011;30477;48.224;11.470;2022-08-01T04:04:57;5.38;;;3.17;;
44750;SDS011;30477;48.224;11.470;2022-08-01T04:07:25;7.82;;;3.50;;
44750;SDS011;30477;48.224;11.470;2022-08-01T04:09:54;5.38;;;3.38;;
44750;SDS011;30477;48.224;11.470;2022-08-01T04:12:20;4.57;;;3.50;;
44750;SDS011;30477;48.224;11.470;2022-08-01T04:14:46;3.97;;;3.00;;
44750;SDS011;30477;48.224;11.470;2022-08-01T04:17:12;5.13;;;3.22;;
44750;SDS011;30477;48.224;11.470;2022-08-01T04:19:38;4.53;;;3.60;;
44750;SDS011;30477;48.224;11.470;2022-08-01T04:22:04;7.90;;;3.60;;
44750;SDS011;30477;48.224;11.470;2022-08-01T04:24:30;6.07;;;3.50;;
44750;SDS011;30477;48.224;11.470;2022-08-01T04:26:59;3.25;;;2.92;;
44750;SDS011;30477;48.224;11.470;2022-08-01T04:29:26;4.47;;;3.03;;
44750;SDS011;30477;48.224;11.470;2022-08-01T04:31:54;5.28;;;3.65;;
44750;SDS011;30477;48.224;11.470;2022-08-01T04:34:23;5.05;;;3.30;;
44750;SDS011;30477;48.224;11.470;2022-08-01T04:36:54;4.90;;;3.55;;
44750;SDS011;30477;48.224;11.470;2022-08-01T04:39:20;5.53;;;3.72;;
44750;SDS011;30477;48.224;11.470;2022-08-01T04:41:52;5.10;;;3.42;;
44750;SDS011;30477;48.224;11.470;2022-08-01T04:44:21;3.90;;;3.03;;
44750;SDS011;30477;48.224;11.470;2022-08-01T04:46:47;6.05;;;3.60;;
44750;SDS011;30477;48.224;11.470;2022-08-01T04:49:14;5.38;;;3.55;;
44750;SDS011;30477;48.224;11.470;2022-08-01T04:51:51;3.53;;;3.13;;
44750;SDS011;30477;48.224;11.470;2022-08-01T04:54:22;4.70;;;3.17;;
44750;SDS011;30477;48.224;11.470;2022-08-01T04:56:49;5.32;;;3.38;;
44750;SDS011;30477;48.224;11.470;2022-08-01T04:59:15;7.05;;;3.25;;
44750;SDS011;30477;48.224;11.470;2022-08-01T05:01:59;4.72;;;3.22;;
44750;SDS011;30477;48.224;11.470;2022-08-01T05:04:24;4.20;;;2.97;;
44750;SDS011;30477;48.224;11.470;2022-08-01T05:06:50;5.63;;;3.17;;
44750;SDS011;30477;48.224;11.470;2022-08-01T05:09:15;5.23;;;2.80;;
44750;SDS011;30477;48.224;11.470;2022-08-01T05:11:40;4.15;;;2.70;;
44750;SDS011;30477;48.224;11.470;2022-08-01T05:14:06;3.30;;;3.00;;
44750;SDS011;30477;48.224;11.470;2022-08-01T05:16:31;4.07;;;2.90;;
44750;SDS011;30477;48.224;11.470;2022-08-01T05:18:56;4.37;;;3.30;;
44750;SDS011;30477;48.224;11.470;2022-08-01T05:21:22;4.77;;;3.00;;
44750;SDS011;30477;48.224;11.470;2022-08-01T05:23:47;3.13;;;2.83;;
44750;SDS011;30477;48.224;11.470;2022-08-01T05:26:14;3.75;;;2.80;;
44750;SDS011;30477;48.224;11.470;2022-08-01T05:28:39;3.00;;;2.70;;
44750;SDS011;30477;48.224;11.470;2022-08-01T05:31:05;2.70;;;2.50;;
44750;SDS011;30477;48.224;11.470;2022-08-01T05:33:30;4.63;;;2.90;;
44750;SDS011;30477;48.224;11.470;2022-08-01T05:35:55;4.32;;;2.88;;
44750;SDS011;30477;48.224;11.470;2022-08-01T05:38:21;3.60;;;2.80;;
44750;SDS011;30477;48.224;11.470;2022-08-01T05:40:46;6.63;;;2.90;;
44750;SDS011;30477;48.224;11.470;2022-08-01T05:43:11;4.43;;;2.60;;
44750;SDS011;30477;48.224;11.470;2022-08-01T05:48:02;4.07;;;2.60;;
44750;SDS011;30477;48.224;11.470;2022-08-01T05:50:27;3.95;;;2.53;;
44750;SDS011;30477;48.224;11.470;2022-08-01T05:52:53;2.70;;;2.50;;
44750;SDS011;30477;48.224;11.470;2022-08-01T05:55:18;2.80;;;2.60;;
44750;SDS011;30477;48.224;11.470;2022-08-01T05:57:44;2.97;;;2.63;;
44750;SDS011;30477;48.224;11.470;2022-08-01T06:00:09;5.53;;;2.83;;
44750;SDS011;30477;48.224;11.470;2022-08-01T06:02:39;2.70;;;2.50;;
44750;SDS011;30477;48.224;11.470;2022-08-01T06:05:06;3.83;;;2.40;;
44750;SDS011;30477;48.224;11.470;2022-08-01T06:09:57;4.37;;;2.73;;
44750;SDS011;30477;48.224;11.470;2022-08-01T06:14:48;4.50;;;2.77;;
44750;SDS011;30477;48.224;11.470;2022-08-01T06:19:38;4.07;;;2.70;;
44750;SDS011;30477;48.224;11.470;2022-08-01T06:24:29;4.17;;;2.70;;
44750;SDS011;30477;48.224;11.470;2022-08-01T06:29:19;2.90;;;2.63;;
44750;SDS011;30477;48.224;11.470;2022-08-01T06:34:10;3.77;;;2.67;;
44750;SDS011;30477;48.224;11.470;2022-08-01T06:39:00;5.27;;;3.20;;
44750;SDS011;30477;48.224;11.470;2022-08-01T06:43:51;5.90;;;2.77;;
44750;SDS011;30477;48.224;11.470;2022-08-01T06:48:42;2.93;;;2.63;;
44750;SDS011;30477;48.224;11.470;2022-08-01T06:53:33;3.63;;;2.93;;
44750;SDS011;30477;48.224;11.470;2022-08-01T06:55:59;2.70;;;2.40;;
44750;SDS011;30477;48.224;11.470;2022-08-01T06:58:25;5.65;;;2.70;;
44750;SDS011;30477;48.224;11.470;2022-08-01T07:03:16;5.80;;;3.00;;
44750;SDS011;30477;48.224;11.470;2022-08-01T07:08:07;4.93;;;3.20;;
44750;SDS011;30477;48.224;11.470;2022-08-01T07:10:32;5.65;;;3.28;;
44750;SDS011;30477;48.224;11.470;2022-08-01T07:12:57;5.00;;;2.70;;
44750;SDS011;30477;48.224;11.470;2022-08-01T07:15:23;3.00;;;2.80;;
44750;SDS011;30477;48.224;11.470;2022-08-01T07:17:51;3.15;;;2.58;;
44750;SDS011;30477;48.224;11.470;2022-08-01T07:20:17;3.95;;;3.00;;
44750;SDS011;30477;48.224;11.470;2022-08-01T07:22:42;4.88;;;2.90;;
44750;SDS011;30477;48.224;11.470;2022-08-01T07:25:08;3.72;;;3.03;;
44750;SDS011;30477;48.224;11.470;2022-08-01T07:27:36;3.67;;;2.80;;
44750;SDS011;30477;48.224;11.470;2022-08-01T07:30:02;4.38;;;2.85;;
44750;SDS011;30477;48.224;11.470;2022-08-01T07:32:29;2.75;;;2.47;;
44750;SDS011;30477;48.224;11.470;2022-08-01T07:34:55;3.47;;;3.00;;
44750;SDS011;30477;48.224;11.470;2022-08-01T07:37:20;2.95;;;2.70;;
44750;SDS011;30477;48.224;11.470;2022-08-01T07:39:46;3.40;;;2.97;;
44750;SDS011;30477;48.224;11.470;2022-08-01T07:42:11;5.97;;;2.80;;
44750;SDS011;30477;48.224;11.470;2022-08-01T07:44:37;3.33;;;2.97;;
44750;SDS011;30477;48.224;11.470;2022-08-01T07:47:02;4.30;;;2.90;;
44750;SDS011;30477;48.224;11.470;2022-08-01T07:49:29;3.60;;;3.00;;
44750;SDS011;30477;48.224;11.470;2022-08-01T07:51:54;3.10;;;2.47;;
44750;SDS011;30477;48.224;11.470;2022-08-01T07:54:20;6.32;;;2.60;;
44750;SDS011;30477;48.224;11.470;2022-08-01T07:56:48;4.50;;;2.83;;
44750;SDS011;30477;48.224;11.470;2022-08-01T07:59:14;3.40;;;3.05;;
44750;SDS011;30477;48.224;11.470;2022-08-01T08:01:40;4.30;;;3.28;;
44750;SDS011;30477;48.224;11.470;2022-08-01T08:04:06;4.95;;;3.75;;
44750;SDS011;30477;48.224;11.470;2022-08-01T08:06:32;6.10;;;2.83;;
44750;SDS011;30477;48.224;11.470;2022-08-01T08:08:57;4.35;;;2.97;;
44750;SDS011;30477;48.224;11.470;2022-08-01T08:11:22;3.03;;;2.80;;
44750;SDS011;30477;48.224;11.470;2022-08-01T08:13:48;2.95;;;2.60;;
44750;SDS011;30477;48.224;11.470;2022-08-01T08:16:13;3.53;;;2.80;;
44750;SDS011;30477;48.224;11.470;2022-08-01T08:18:38;3.63;;;2.70;;
44750;SDS011;30477;48.224;11.470;2022-08-01T08:21:04;5.88;;;3.10;;
44750;SDS011;30477;48.224;11.470;2022-08-01T08:23:29;3.25;;;2.95;;
44750;SDS011;30477;48.224;11.470;2022-08-01T08:26:13;6.35;;;3.22;;
44750;SDS011;30477;48.224;11.470;2022-08-01T08:28:39;3.23;;;2.53;;
44750;SDS011;30477;48.224;11.470;2022-08-01T08:31:04;4.88;;;2.90;;
44750;SDS011;30477;48.224;11.470;2022-08-01T08:33:29;2.95;;;2.70;;
44750;SDS011;30477;48.224;11.470;2022-08-01T08:35:55;3.67;;;2.95;;
44750;SDS011;30477;48.224;11.470;2022-08-01T08:38:20;3.17;;;2.80;;
44750;SDS011;30477;48.224;11.470;2022-08-01T08:40:45;2.90;;;2.70;;
44750;SDS011;30477;48.224;11.470;2022-08-01T08:43:11;3.00;;;2.70;;
44750;SDS011;30477;48.224;11.470;2022-08-01T08:45:37;2.83;;;2.60;;
44750;SDS011;30477;48.224;11.470;2022-08-01T08:48:04;2.90;;;2.70;;
44750;SDS011;30477;48.224;11.470;2022-08-01T08:50:31;3.22;;;2.70;;
44750;SDS011;30477;48.224;11.470;2022-08-01T08:52:57;3.05;;;2.65;;
44750;SDS011;30477;48.224;11.470;2022-08-01T08:55:26;6.50;;;3.25;;
44750;SDS011;30477;48.224;11.470;2022-08-01T08:57:52;3.05;;;2.75;;
44750;SDS011;30477;48.224;11.470;2022-08-01T09:00:19;3.15;;;2.72;;
44750;SDS011;30477;48.224;11.470;2022-08-01T09:02:45;3.00;;;2.80;;
44750;SDS011;30477;48.224;11.470;2022-08-01T09:05:13;2.95;;;2.55;;
44750;SDS011;30477;48.224;11.470;2022-08-01T09:07:39;4.82;;;2.60;;
44750;SDS011;30477;48.224;11.470;2022-08-01T09:10:05;2.47;;;2.28;;
44750;SDS011;30477;48.224;11.470;2022-08-01T09:12:31;5.22;;;2.92;;
44750;SDS011;30477;48.224;11.470;2022-08-01T09:14:56;2.78;;;2.58;;
44750;SDS011;30477;48.224;11.470;2022-08-01T09:17:23;3.72;;;2.75;;
44750;SDS011;30477;48.224;11.470;2022-08-01T09:19:50;4.13;;;2.70;;
44750;SDS011;30477;48.224;11.470;2022-08-01T09:22:19;3.45;;;2.72;;
44750;SDS011;30477;48.224;11.470;2022-08-01T09:24:59;3.30;;;2.45;;
44750;SDS011;30477;48.224;11.470;2022-08-01T09:27:24;2.50;;;2.30;;
44750;SDS011;30477;48.224;11.470;2022-08-01T09:29:54;2.83;;;2.50;;
44750;SDS011;30477;48.224;11.470;2022-08-01T09:32:31;3.67;;;2.50;;
44750;SDS011;30477;48.224;11.470;2022-08-01T09:34:57;4.13;;;2.60;;
44750;SDS011;30477;48.224;11.470;2022-08-01T09:37:43;3.53;;;2.22;;
44750;SDS011;30477;48.224;11.470;2022-08-01T09:40:08;4.30;;;2.53;;
44750;SDS011;30477;48.224;11.470;2022-08-01T09:42:34;5.10;;;2.35;;
44750;SDS011;30477;48.224;11.470;2022-08-01T09:44:59;3.90;;;2.22;;
44750;SDS011;30477;48.224;11.470;2022-08-01T09:47:36;2.75;;;2.10;;
44750;SDS011;30477;48.224;11.470;2022-08-01T09:50:03;5.70;;;2.30;;
44750;SDS011;30477;48.224;11.470;2022-08-01T09:52:29;3.15;;;2.10;;
44750;SDS011;30477;48.224;11.470;2022-08-01T09:54:58;2.80;;;2.05;;
44750;SDS011;30477;48.224;11.470;2022-08-01T09:57:25;5.90;;;1.90;;
44750;SDS011;30477;48.224;11.470;2022-08-01T09:59:52;2.80;;;1.70;;
44750;SDS011;30477;48.224;11.470;2022-08-01T10:02:53;3.33;;;1.90;;
44750;SDS011;30477;48.224;11.470;2022-08-01T10:05:11;2.63;;;1.90;;
44750;SDS011;30477;48.224;11.470;2022-08-01T10:07:54;2.92;;;2.10;;
44750;SDS011;30477;48.224;11.470;2022-08-01T10:10:24;2.33;;;2.13;;
44750;SDS011;30477;48.224;11.470;2022-08-01T10:12:49;2.80;;;2.03;;
44750;SDS011;30477;48.224;11.470;2022-08-01T10:15:17;1.75;;;1.63;;
44750;SDS011;30477;48.224;11.470;2022-08-01T10:18:06;3.92;;;2.08;;
44750;SDS011;30477;48.224;11.470;2022-08-01T10:20:32;2.80;;;1.98;;
44750;SDS011;30477;48.224;11.470;2022-08-01T10:22:59;3.85;;;2.00;;
44750;SDS011;30477;48.224;11.470;2022-08-01T10:25:28;5.75;;;2.58;;
44750;SDS011;30477;48.224;11.470;2022-08-01T10:27:58;2.25;;;2.03;;
44750;SDS011;30477;48.224;11.470;2022-08-01T10:30:26;2.42;;;2.00;;
44750;SDS011;30477;48.224;11.470;2022-08-01T10:32:52;3.25;;;1.88;;
44750;SDS011;30477;48.224;11.470;2022-08-01T10:35:18;4.03;;;2.00;;
44750;SDS011;30477;48.224;11.470;2022-08-01T10:37:45;3.15;;;1.92;;
44750;SDS011;30477;48.224;11.470;2022-08-01T10:40:12;3.38;;;1.85;;
44750;SDS011;30477;48.224;11.470;2022-08-01T10:42:42;2.55;;;1.98;;
44750;SDS011;30477;48.224;11.470;2022-08-01T10:45:12;6.80;;;2.47;;
44750;SDS011;30477;48.224;11.470;2022-08-01T10:47:44;2.95;;;1.60;;
44750;SDS011;30477;48.224;11.470;2022-08-01T10:50:21;2.95;;;2.10;;
44750;SDS011;30477;48.224;11.470;2022-08-01T10:55:47;3.33;;;1.70;;
44750;SDS011;30477;48.224;11.470;2022-08-01T11:03:39;1.77;;;1.67;;
44750;SDS011;30477;48.224;11.470;2022-08-01T11:06:25;11.18;;;2.72;;
44750;SDS011;30477;48.224;11.470;2022-08-01T11:11:56;2.37;;;2.00;;
44750;SDS011;30477;48.224;11.470;2022-08-01T11:14:29;3.28;;;1.65;;
44750;SDS011;30477;48.224;11.470;2022-08-01T11:16:55;5.00;;;2.10;;
44750;SDS011;30477;48.224;11.470;2022-08-01T11:19:21;2.90;;;1.65;;
44750;SDS011;30477;48.224;11.470;2022-08-01T11:27:17;2.13;;;1.70;;
44750;SDS011;30477;48.224;11.470;2022-08-01T11:29:42;3.50;;;1.85;;
44750;SDS011;30477;48.224;11.470;2022-08-01T11:34:53;1.73;;;1.63;;
44750;SDS011;30477;48.224;11.470;2022-08-01T11:37:23;2.20;;;1.60;;
44750;SDS011;30477;48.224;11.470;2022-08-01T11:42:40;2.28;;;1.80;;
44750;SDS011;30477;48.224;11.470;2022-08-01T11:47:50;1.77;;;1.63;;
44750;SDS011;30477;48.224;11.470;2022-08-01T11:53:26;2.65;;;1.88;;
44750;SDS011;30477;48.224;11.470;2022-08-01T11:55:46;2.45;;;1.90;;
44750;SDS011;30477;48.224;11.470;2022-08-01T11:58:16;5.25;;;1.98;;
44750;SDS011;30477;48.224;11.470;2022-08-01T12:00:53;2.85;;;1.85;;
44750;SDS011;30477;48.224;11.470;2022-08-01T12:03:26;1.70;;;1.60;;
44750;SDS011;30477;48.224;11.470;2022-08-01T12:05:54;3.72;;;1.70;;
44750;SDS011;30477;48.224;11.470;2022-08-01T12:08:24;2.20;;;2.00;;
44750;SDS011;30477;48.224;11.470;2022-08-01T12:10:53;1.67;;;1.58;;
44750;SDS011;30477;48.224;11.470;2022-08-01T12:15:46;2.45;;;1.60;;
44750;SDS011;30477;48.224;11.470;2022-08-01T12:18:12;3.08;;;1.80;;
44750;SDS011;30477;48.224;11.470;2022-08-01T12:23:05;2.45;;;1.80;;
44750;SDS011;30477;48.224;11.470;2022-08-01T12:25:33;3.03;;;1.45;;
44750;SDS011;30477;48.224;11.470;2022-08-01T12:28:03;2.22;;;1.63;;
44750;SDS011;30477;48.224;11.470;2022-08-01T12:30:29;2.38;;;1.50;;
44750;SDS011;30477;48.224;11.470;2022-08-01T12:32:57;1.75;;;1.50;;
44750;SDS011;30477;48.224;11.470;2022-08-01T12:35:23;2.42;;;1.40;;
44750;SDS011;30477;48.224;11.470;2022-08-01T12:40:27;2.13;;;1.67;;
44750;SDS011;30477;48.224;11.470;2022-08-01T12:42:56;3.35;;;1.58;;
44750;SDS011;30477;48.224;11.470;2022-08-01T12:47:55;4.82;;;1.90;;
44750;SDS011;30477;48.224;11.470;2022-08-01T12:50:25;2.83;;;1.70;;
44750;SDS011;30477;48.224;11.470;2022-08-01T12:52:56;2.22;;;1.48;;
44750;SDS011;30477;48.224;11.470;2022-08-01T12:55:23;2.50;;;1.63;;
44750;SDS011;30477;48.224;11.470;2022-08-01T12:58:10;4.57;;;1.50;;
44750;SDS011;30477;48.224;11.470;2022-08-01T13:00:38;3.85;;;1.77;;
44750;SDS011;30477;48.224;11.470;2022-08-01T13:03:06;7.32;;;1.77;;
44750;SDS011;30477;48.224;11.470;2022-08-01T13:08:31;3.42;;;1.50;;
44750;SDS011;30477;48.224;11.470;2022-08-01T13:13:37;3.60;;;1.70;;
44750;SDS011;30477;48.224;11.470;2022-08-01T13:16:04;5.35;;;1.88;;
44750;SDS011;30477;48.224;11.470;2022-08-01T13:18:31;2.88;;;1.55;;
44750;SDS011;30477;48.224;11.470;2022-08-01T13:21:16;3.53;;;1.70;;
44750;SDS011;30477;48.224;11.470;2022-08-01T13:26:41;1.88;;;1.42;;
44750;SDS011;30477;48.224;11.470;2022-08-01T13:29:12;2.90;;;1.73;;
44750;SDS011;30477;48.224;11.470;2022-08-01T13:31:40;2.70;;;1.50;;
44750;SDS011;30477;48.224;11.470;2022-08-01T13:34:06;3.47;;;1.60;;
44750;SDS011;30477;48.224;11.470;2022-08-01T13:36:33;1.73;;;1.10;;
44750;SDS011;30477;48.224;11.470;2022-08-01T13:38:59;2.53;;;1.20;;
44750;SDS011;30477;48.224;11.470;2022-08-01T13:41:44;1.98;;;1.30;;
44750;SDS011;30477;48.224;11.470;2022-08-01T13:44:10;2.88;;;1.45;;
44750;SDS011;30477;48.224;11.470;2022-08-01T13:49:02;2.58;;;1.30;;
44750;SDS011;30477;48.224;11.470;2022-08-01T13:53:53;2.00;;;1.53;;
44750;SDS011;30477;48.224;11.470;2022-08-01T13:58:45;4.20;;;1.70;;
44750;SDS011;30477;48.224;11.470;2022-08-01T14:03:35;4.07;;;1.60;;
44750;SDS011;30477;48.224;11.470;2022-08-01T14:08:27;4.97;;;1.70;;
44750;SDS011;30477;48.224;11.470;2022-08-01T14:13:18;3.88;;;1.67;;
44750;SDS011;30477;48.224;11.470;2022-08-01T14:18:09;2.93;;;1.60;;
44750;SDS011;30477;48.224;11.470;2022-08-01T14:23:00;5.10;;;1.90;;
44750;SDS011;30477;48.224;11.470;2022-08-01T14:27:51;3.27;;;2.00;;
44750;SDS011;30477;48.224;11.470;2022-08-01T14:32:41;3.33;;;1.83;;
44750;SDS011;30477;48.224;11.470;2022-08-01T14:37:32;6.75;;;2.17;;
44750;SDS011;30477;48.224;11.470;2022-08-01T14:42:24;2.15;;;1.80;;
44750;SDS011;30477;48.224;11.470;2022-08-01T14:44:50;3.85;;;1.90;;
44750;SDS011;30477;48.224;11.470;2022-08-01T14:49:41;3.60;;;1.83;;
44750;SDS011;30477;48.224;11.470;2022-08-01T14:54:32;4.33;;;1.80;;
44750;SDS011;30477;48.224;11.470;2022-08-01T14:59:23;2.17;;;1.80;;
44750;SDS011;30477;48.224;11.470;2022-08-01T15:04:14;2.77;;;1.80;;
44750;SDS011;30477;48.224;11.470;2022-08-01T15:06:39;15.73;;;3.40;;
44750;SDS011;30477;48.224;11.470;2022-08-01T15:09:05;3.97;;;2.10;;
44750;SDS011;30477;48.224;11.470;2022-08-01T15:13:56;8.20;;;2.30;;
44750;SDS011;30477;48.224;11.470;2022-08-01T15:16:40;2.97;;;2.25;;
44750;SDS011;30477;48.224;11.470;2022-08-01T15:21:31;6.22;;;2.25;;
44750;SDS011;30477;48.224;11.470;2022-08-01T15:26:21;4.90;;;2.60;;
44750;SDS011;30477;48.224;11.470;2022-08-01T15:31:12;3.60;;;1.67;;
44750;SDS011;30477;48.224;11.470;2022-08-01T15:33:38;2.35;;;1.63;;
44750;SDS011;30477;48.224;11.470;2022-08-01T15:38:29;2.45;;;1.90;;
44750;SDS011;30477;48.224;11.470;2022-08-01T15:40:54;5.67;;;2.00;;
44750;SDS011;30477;48.224;11.470;2022-08-01T15:43:19;1.77;;;1.67;;
44750;SDS011;30477;48.224;11.470;2022-08-01T15:45:45;2.47;;;1.77;;
44750;SDS011;30477;48.224;11.470;2022-08-01T15:48:10;1.90;;;1.70;;
44750;SDS011;30477;48.224;11.470;2022-08-01T15:53:03;5.07;;;1.75;;
44750;SDS011;30477;48.224;11.470;2022-08-01T15:55:28;4.57;;;1.67;;
44750;SDS011;30477;48.224;11.470;2022-08-01T15:57:54;2.15;;;1.52;;
44750;SDS011;30477;48.224;11.470;2022-08-01T16:00:19;3.13;;;1.70;;
44750;SDS011;30477;48.224;11.470;2022-08-01T16:02:45;2.17;;;1.40;;
44750;SDS011;30477;48.224;11.470;2022-08-01T16:05:11;5.97;;;2.30;;
44750;SDS011;30477;48.224;11.470;2022-08-01T16:07:36;6.05;;;1.75;;
44750;SDS011;30477;48.224;11.470;2022-08-01T16:10:02;3.40;;;2.10;;
44750;SDS011;30477;48.224;11.470;2022-08-01T16:12:28;2.63;;;2.00;;
44750;SDS011;30477;48.224;11.470;2022-08-01T16:14:54;2.37;;;1.70;;
44750;SDS011;30477;48.224;11.470;2022-08-01T16:17:20;4.95;;;2.20;;
44750;SDS011;30477;48.224;11.470;2022-08-01T16:19:45;14.47;;;12.73;;
44750;SDS011;30477;48.224;11.470;2022-08-01T16:22:11;6.93;;;5.77;;
44750;SDS011;30477;48.224;11.470;2022-08-01T16:24:36;4.83;;;2.97;;
44750;SDS011;30477;48.224;11.470;2022-08-01T16:27:02;2.60;;;2.07;;
44750;SDS011;30477;48.224;11.470;2022-08-01T16:29:27;3.25;;;2.30;;
44750;SDS011;30477;48.224;11.470;2022-08-01T16:31:54;3.38;;;1.95;;
44750;SDS011;30477;48.224;11.470;2022-08-01T16:36:46;4.30;;;2.00;;
44750;SDS011;30477;48.224;11.470;2022-08-01T16:39:14;2.13;;;1.70;;
44750;SDS011;30477;48.224;11.470;2022-08-01T16:41:39;1.77;;;1.67;;
44750;SDS011;30477;48.224;11.470;2022-08-01T16:44:05;4.35;;;1.92;;
44750;SDS011;30477;48.224;11.470;2022-08-01T16:46:30;3.42;;;1.90;;
44750;SDS011;30477;48.224;11.470;2022-08-01T16:48:55;4.93;;;2.10;;
44750;SDS011;30477;48.224;11.470;2022-08-01T16:51:21;2.37;;;1.67;;
44750;SDS011;30477;48.224;11.470;2022-08-01T16:53:46;3.03;;;1.40;;
44750;SDS011;30477;48.224;11.470;2022-08-01T16:56:12;3.25;;;1.90;;
44750;SDS011;30477;48.224;11.470;2022-08-01T16:58:37;2.77;;;1.70;;
44750;SDS011;30477;48.224;11.470;2022-08-01T17:01:02;2.93;;;1.60;;